Time;durP1;ratioP1;P1;durP2;ratioP2;P2;SDS_P1;SDS_P2;PMS_P1;PMS_P2;Temp;Humidity;BMP_temperature;BMP_pressure;BME280_temperature;BME280_humidity;BME280_pressure;Samples;Min_cycle;Max_cycle;Signal;HPM_P1;HPM_P2
2022/04/13 00:00:43;;;;;;;5.95;3.7;;;;;;;6.48;58.86426;94915.37;;;;
2022/04/13 00:01:43;;;;;;;5.95;3.7;;;;;;;6.48;58.86426;94915.37;;;;
2022/04/13 00:02:44;;;;;;;5.95;3.7;;;;;;;6.48;58.86426;94915.37;;;;
2022/04/13 00:03:46;;;;;;;5.95;3.7;;;;;;;6.48;58.86426;94915.37;;;;
2022/04/13 00:04:47;;;;;;;5.95;3.7;;;;;;;6.48;58.86426;94915.37;;;;
2022/04/13 00:05:48;;;;;;;5.95;3.7;;;;;;;6.48;58.86426;94915.37;;;;
2022/04/13 00:06:49;;;;;;;5.95;3.7;;;;;;;6.48;58.86426;94915.37;;;;
2022/04/13 00:07:49;;;;;;;5.95;3.7;;;;;;;6.48;58.86426;94915.37;;;;
2022/04/13 00:08:50;;;;;;;5.95;3.7;;;;;;;6.48;58.86426;94915.37;;;;
2022/04/13 00:09:51;;;;;;;5.95;3.7;;;;;;;6.48;58.86426;94915.37;;;;
2022/04/13 00:10:51;;;;;;;5.550001;3.6;;;;;;;6.2;59.5498;94914.17;;;;
2022/04/13 00:11:54;;;;;;;5.550001;3.6;;;;;;;6.2;59.5498;94914.17;;;;
2022/04/13 00:12:54;;;;;;;5.550001;3.6;;;;;;;6.2;59.5498;94914.17;;;;
2022/04/13 00:13:55;;;;;;;5.550001;3.6;;;;;;;6.2;59.5498;94914.17;;;;
2022/04/13 00:14:55;;;;;;;5.550001;3.6;;;;;;;6.2;59.5498;94914.17;;;;
2022/04/13 00:15:56;;;;;;;5.550001;3.6;;;;;;;6.2;59.5498;94914.17;;;;
2022/04/13 00:16:56;;;;;;;5.550001;3.6;;;;;;;6.2;59.5498;94914.17;;;;
2022/04/13 00:17:57;;;;;;;5.550001;3.6;;;;;;;6.2;59.5498;94914.17;;;;
2022/04/13 00:18:57;;;;;;;5.550001;3.6;;;;;;;6.2;59.5498;94914.17;;;;
2022/04/13 00:19:58;;;;;;;5.550001;3.6;;;;;;;6.2;59.5498;94914.17;;;;
2022/04/13 00:20:59;;;;;;;5.550001;3.6;;;;;;;6.2;59.5498;94914.17;;;;
2022/04/13 00:21:59;;;;;;;5.9;3.35;;;;;;;6.05;59.91309;94922.94;;;;
2022/04/13 00:23:00;;;;;;;5.9;3.35;;;;;;;6.05;59.91309;94922.94;;;;
2022/04/13 00:24:00;;;;;;;5.9;3.35;;;;;;;6.05;59.91309;94922.94;;;;
2022/04/13 00:25:01;;;;;;;5.9;3.35;;;;;;;6.05;59.91309;94922.94;;;;
2022/04/13 00:26:01;;;;;;;5.9;3.35;;;;;;;6.05;59.91309;94922.94;;;;
2022/04/13 00:27:02;;;;;;;5.9;3.35;;;;;;;6.05;59.91309;94922.94;;;;
2022/04/13 00:28:03;;;;;;;5.9;3.35;;;;;;;6.05;59.91309;94922.94;;;;
2022/04/13 00:29:04;;;;;;;5.9;3.35;;;;;;;6.05;59.91309;94922.94;;;;
2022/04/13 00:30:05;;;;;;;5.9;3.35;;;;;;;6.05;59.91309;94922.94;;;;
2022/04/13 00:31:06;;;;;;;5.9;3.35;;;;;;;6.05;59.91309;94922.94;;;;
2022/04/13 00:32:07;;;;;;;5.25;3.3;;;;;;;5.93;60.24707;94918.48;;;;
2022/04/13 00:33:08;;;;;;;5.25;3.3;;;;;;;5.93;60.24707;94918.48;;;;
2022/04/13 00:34:09;;;;;;;5.25;3.3;;;;;;;5.93;60.24707;94918.48;;;;
2022/04/13 00:35:10;;;;;;;5.25;3.3;;;;;;;5.93;60.24707;94918.48;;;;
2022/04/13 00:36:11;;;;;;;5.25;3.3;;;;;;;5.93;60.24707;94918.48;;;;
2022/04/13 00:37:11;;;;;;;5.25;3.3;;;;;;;5.93;60.24707;94918.48;;;;
2022/04/13 00:38:12;;;;;;;5.25;3.3;;;;;;;5.93;60.24707;94918.48;;;;
2022/04/13 00:39:12;;;;;;;5.25;3.3;;;;;;;5.93;60.24707;94918.48;;;;
2022/04/13 00:40:13;;;;;;;5.25;3.3;;;;;;;5.93;60.24707;94918.48;;;;
2022/04/13 00:41:13;;;;;;;5.25;3.3;;;;;;;5.93;60.24707;94918.48;;;;
2022/04/13 00:42:16;;;;;;;5.25;3.3;;;;;;;5.93;60.24707;94918.48;;;;
2022/04/13 00:43:17;;;;;;;5.25;3.3;;;;;;;5.93;60.24707;94918.48;;;;
2022/04/13 00:44:17;;;;;;;5.25;3.3;;;;;;;5.93;60.24707;94918.48;;;;
2022/04/13 00:45:18;;;;;;;5.25;3.3;;;;;;;5.93;60.24707;94918.48;;;;
2022/04/13 00:46:18;;;;;;;5.25;3.3;;;;;;;5.93;60.24707;94918.48;;;;
2022/04/13 00:47:19;;;;;;;5.25;3.3;;;;;;;5.93;60.24707;94918.48;;;;
2022/04/13 00:48:20;;;;;;;5.25;3.3;;;;;;;5.93;60.24707;94918.48;;;;
2022/04/13 00:49:28;;;;;;;5.25;3.3;;;;;;;5.93;60.24707;94918.48;;;;
2022/04/13 00:50:28;;;;;;;5.25;3.3;;;;;;;5.93;60.24707;94918.48;;;;
2022/04/13 00:51:29;;;;;;;5.25;3.3;;;;;;;5.93;60.24707;94918.48;;;;
2022/04/13 00:52:29;;;;;;;5.25;3.3;;;;;;;5.93;60.24707;94918.48;;;;
2022/04/13 00:53:31;;;;;;;5.199999;3.2;;;;;;;5.65;60.75977;94917.49;;;;
2022/04/13 00:54:35;;;;;;;5.199999;3.2;;;;;;;5.65;60.75977;94917.49;;;;
2022/04/13 00:55:37;;;;;;;5.199999;3.2;;;;;;;5.65;60.75977;94917.49;;;;
2022/04/13 00:56:40;;;;;;;5.199999;3.2;;;;;;;5.65;60.75977;94917.49;;;;
2022/04/13 00:57:41;;;;;;;5.199999;3.2;;;;;;;5.65;60.75977;94917.49;;;;
2022/04/13 00:58:42;;;;;;;5.199999;3.2;;;;;;;5.65;60.75977;94917.49;;;;
2022/04/13 00:59:47;;;;;;;5.199999;3.2;;;;;;;5.65;60.75977;94917.49;;;;
2022/04/13 01:00:51;;;;;;;5.199999;3.2;;;;;;;5.65;60.75977;94917.49;;;;
2022/04/13 01:01:52;;;;;;;5.199999;3.2;;;;;;;5.65;60.75977;94917.49;;;;
2022/04/13 01:02:55;;;;;;;5.199999;3.2;;;;;;;5.65;60.75977;94917.49;;;;
2022/04/13 01:03:58;;;;;;;5.199999;3.2;;;;;;;5.65;60.75977;94917.49;;;;
2022/04/13 01:05:00;;;;;;;4.400001;3.15;;;;;;;5.57;61.07813;94927.53;;;;
2022/04/13 01:06:04;;;;;;;4.400001;3.15;;;;;;;5.57;61.07813;94927.53;;;;
2022/04/13 01:07:06;;;;;;;4.400001;3.15;;;;;;;5.57;61.07813;94927.53;;;;
2022/04/13 01:08:09;;;;;;;4.400001;3.15;;;;;;;5.57;61.07813;94927.53;;;;
2022/04/13 01:09:12;;;;;;;4.400001;3.15;;;;;;;5.57;61.07813;94927.53;;;;
2022/04/13 01:10:15;;;;;;;4.400001;3.15;;;;;;;5.57;61.07813;94927.53;;;;
2022/04/13 01:11:15;;;;;;;4.400001;3.15;;;;;;;5.57;61.07813;94927.53;;;;
2022/04/13 01:12:16;;;;;;;4.400001;3.15;;;;;;;5.57;61.07813;94927.53;;;;
2022/04/13 01:13:16;;;;;;;4.400001;3.15;;;;;;;5.57;61.07813;94927.53;;;;
2022/04/13 01:14:17;;;;;;;4.400001;3.15;;;;;;;5.57;61.07813;94927.53;;;;
2022/04/13 01:15:18;;;;;;;3.5;2.85;;;;;;;5.51;61.28125;94934.23;;;;
2022/04/13 01:16:19;;;;;;;3.5;2.85;;;;;;;5.51;61.28125;94934.23;;;;
2022/04/13 01:17:19;;;;;;;3.5;2.85;;;;;;;5.51;61.28125;94934.23;;;;
2022/04/13 01:18:20;;;;;;;3.5;2.85;;;;;;;5.51;61.28125;94934.23;;;;
2022/04/13 01:19:21;;;;;;;3.5;2.85;;;;;;;5.51;61.28125;94934.23;;;;
2022/04/13 01:20:23;;;;;;;3.5;2.85;;;;;;;5.51;61.28125;94934.23;;;;
2022/04/13 01:21:24;;;;;;;3.5;2.85;;;;;;;5.51;61.28125;94934.23;;;;
2022/04/13 01:22:37;;;;;;;3.5;2.85;;;;;;;5.51;61.28125;94934.23;;;;
2022/04/13 01:23:39;;;;;;;3.5;2.85;;;;;;;5.51;61.28125;94934.23;;;;
2022/04/13 01:24:40;;;;;;;3.5;2.85;;;;;;;5.51;61.28125;94934.23;;;;
2022/04/13 01:25:40;;;;;;;3.55;2.6;;;;;;;5.37;61.44141;94939.76;;;;
2022/04/13 01:26:47;;;;;;;3.55;2.6;;;;;;;5.37;61.44141;94939.76;;;;
2022/04/13 01:27:47;;;;;;;3.55;2.6;;;;;;;5.37;61.44141;94939.76;;;;
2022/04/13 01:28:48;;;;;;;3.55;2.6;;;;;;;5.37;61.44141;94939.76;;;;
2022/04/13 01:29:52;;;;;;;3.55;2.6;;;;;;;5.37;61.44141;94939.76;;;;
2022/04/13 01:30:53;;;;;;;3.55;2.6;;;;;;;5.37;61.44141;94939.76;;;;
2022/04/13 01:31:54;;;;;;;3.55;2.6;;;;;;;5.37;61.44141;94939.76;;;;
2022/04/13 01:32:55;;;;;;;3.55;2.6;;;;;;;5.37;61.44141;94939.76;;;;
2022/04/13 01:33:59;;;;;;;3.55;2.6;;;;;;;5.37;61.44141;94939.76;;;;
2022/04/13 01:35:00;;;;;;;3.55;2.6;;;;;;;5.37;61.44141;94939.76;;;;
2022/04/13 01:36:01;;;;;;;3.55;2.6;;;;;;;5.37;61.44141;94939.76;;;;
2022/04/13 01:37:02;;;;;;;3.55;2.6;;;;;;;5.37;61.44141;94939.76;;;;
2022/04/13 01:38:03;;;;;;;3.55;2.6;;;;;;;5.37;61.44141;94939.76;;;;
2022/04/13 01:39:04;;;;;;;3.55;2.6;;;;;;;5.37;61.44141;94939.76;;;;
2022/04/13 01:40:06;;;;;;;3.55;2.6;;;;;;;5.37;61.44141;94939.76;;;;
2022/04/13 01:41:08;;;;;;;3.55;2.6;;;;;;;5.37;61.44141;94939.76;;;;
2022/04/13 01:42:08;;;;;;;3.55;2.6;;;;;;;5.37;61.44141;94939.76;;;;
2022/04/13 01:43:09;;;;;;;3.55;2.6;;;;;;;5.37;61.44141;94939.76;;;;
2022/04/13 01:44:10;;;;;;;3.55;2.6;;;;;;;5.37;61.44141;94939.76;;;;
2022/04/13 01:45:10;;;;;;;3.55;2.6;;;;;;;5.37;61.44141;94939.76;;;;
2022/04/13 01:46:11;;;;;;;3.55;2.6;;;;;;;5.37;61.44141;94939.76;;;;
2022/04/13 01:47:11;;;;;;;5.05;3.05;;;;;;;5.07;62.03613;94948.81;;;;
2022/04/13 01:48:12;;;;;;;5.05;3.05;;;;;;;5.07;62.03613;94948.81;;;;
2022/04/13 01:49:12;;;;;;;5.05;3.05;;;;;;;5.07;62.03613;94948.81;;;;
2022/04/13 01:50:13;;;;;;;5.05;3.05;;;;;;;5.07;62.03613;94948.81;;;;
2022/04/13 01:51:14;;;;;;;5.05;3.05;;;;;;;5.07;62.03613;94948.81;;;;
2022/04/13 01:52:15;;;;;;;5.05;3.05;;;;;;;5.07;62.03613;94948.81;;;;
2022/04/13 01:53:15;;;;;;;5.05;3.05;;;;;;;5.07;62.03613;94948.81;;;;
2022/04/13 01:54:16;;;;;;;5.05;3.05;;;;;;;5.07;62.03613;94948.81;;;;
2022/04/13 01:55:17;;;;;;;5.05;3.05;;;;;;;5.07;62.03613;94948.81;;;;
2022/04/13 01:56:18;;;;;;;5.05;3.05;;;;;;;5.07;62.03613;94948.81;;;;
2022/04/13 01:57:19;;;;;;;5.05;3.05;;;;;;;5.07;62.03613;94948.81;;;;
2022/04/13 01:58:20;;;;;;;5.199999;3;;;;;;;4.92;62.375;94956.28;;;;
2022/04/13 01:59:20;;;;;;;5.199999;3;;;;;;;4.92;62.375;94956.28;;;;
2022/04/13 02:00:21;;;;;;;5.199999;3;;;;;;;4.92;62.375;94956.28;;;;
2022/04/13 02:01:21;;;;;;;5.199999;3;;;;;;;4.92;62.375;94956.28;;;;
2022/04/13 02:02:22;;;;;;;5.199999;3;;;;;;;4.92;62.375;94956.28;;;;
2022/04/13 02:03:23;;;;;;;5.199999;3;;;;;;;4.92;62.375;94956.28;;;;
2022/04/13 02:04:25;;;;;;;5.199999;3;;;;;;;4.92;62.375;94956.28;;;;
2022/04/13 02:05:26;;;;;;;5.199999;3;;;;;;;4.92;62.375;94956.28;;;;
2022/04/13 02:06:26;;;;;;;5.199999;3;;;;;;;4.92;62.375;94956.28;;;;
2022/04/13 02:07:27;;;;;;;5.199999;3;;;;;;;4.92;62.375;94956.28;;;;
2022/04/13 02:08:28;;;;;;;4.599999;2.95;;;;;;;4.75;62.63574;94954.66;;;;
2022/04/13 02:09:28;;;;;;;4.599999;2.95;;;;;;;4.75;62.63574;94954.66;;;;
2022/04/13 02:10:29;;;;;;;4.599999;2.95;;;;;;;4.75;62.63574;94954.66;;;;
2022/04/13 02:11:29;;;;;;;4.599999;2.95;;;;;;;4.75;62.63574;94954.66;;;;
2022/04/13 02:12:30;;;;;;;4.599999;2.95;;;;;;;4.75;62.63574;94954.66;;;;
2022/04/13 02:13:31;;;;;;;4.599999;2.95;;;;;;;4.75;62.63574;94954.66;;;;
2022/04/13 02:14:31;;;;;;;4.599999;2.95;;;;;;;4.75;62.63574;94954.66;;;;
2022/04/13 02:15:32;;;;;;;4.599999;2.95;;;;;;;4.75;62.63574;94954.66;;;;
2022/04/13 02:16:32;;;;;;;4.599999;2.95;;;;;;;4.75;62.63574;94954.66;;;;
2022/04/13 02:17:33;;;;;;;4.599999;2.95;;;;;;;4.75;62.63574;94954.66;;;;
2022/04/13 02:18:33;;;;;;;4.599999;2.95;;;;;;;4.75;62.63574;94954.66;;;;
2022/04/13 02:19:34;;;;;;;4.799999;3.05;;;;;;;4.66;62.82324;94947.88;;;;
2022/04/13 02:20:34;;;;;;;4.799999;3.05;;;;;;;4.66;62.82324;94947.88;;;;
2022/04/13 02:21:35;;;;;;;4.799999;3.05;;;;;;;4.66;62.82324;94947.88;;;;
2022/04/13 02:22:35;;;;;;;4.799999;3.05;;;;;;;4.66;62.82324;94947.88;;;;
2022/04/13 02:23:36;;;;;;;4.799999;3.05;;;;;;;4.66;62.82324;94947.88;;;;
2022/04/13 02:24:38;;;;;;;4.799999;3.05;;;;;;;4.66;62.82324;94947.88;;;;
2022/04/13 02:25:38;;;;;;;4.799999;3.05;;;;;;;4.66;62.82324;94947.88;;;;
2022/04/13 02:26:39;;;;;;;4.799999;3.05;;;;;;;4.66;62.82324;94947.88;;;;
2022/04/13 02:27:40;;;;;;;4.799999;3.05;;;;;;;4.66;62.82324;94947.88;;;;
2022/04/13 02:28:42;;;;;;;4.799999;3.05;;;;;;;4.66;62.82324;94947.88;;;;
2022/04/13 02:29:46;;;;;;;4.750001;3.15;;;;;;;4.59;62.94141;94933.7;;;;
2022/04/13 02:30:46;;;;;;;4.750001;3.15;;;;;;;4.59;62.94141;94933.7;;;;
2022/04/13 02:31:47;;;;;;;4.750001;3.15;;;;;;;4.59;62.94141;94933.7;;;;
2022/04/13 02:32:47;;;;;;;4.750001;3.15;;;;;;;4.59;62.94141;94933.7;;;;
2022/04/13 02:33:51;;;;;;;4.750001;3.15;;;;;;;4.59;62.94141;94933.7;;;;
2022/04/13 02:34:51;;;;;;;4.750001;3.15;;;;;;;4.59;62.94141;94933.7;;;;
2022/04/13 02:35:52;;;;;;;4.750001;3.15;;;;;;;4.59;62.94141;94933.7;;;;
2022/04/13 02:36:52;;;;;;;4.750001;3.15;;;;;;;4.59;62.94141;94933.7;;;;
2022/04/13 02:37:53;;;;;;;4.750001;3.15;;;;;;;4.59;62.94141;94933.7;;;;
2022/04/13 02:38:54;;;;;;;4.750001;3.15;;;;;;;4.59;62.94141;94933.7;;;;
2022/04/13 02:39:54;;;;;;;4.750001;3.15;;;;;;;4.59;62.94141;94933.7;;;;
2022/04/13 02:40:55;;;;;;;6.450001;3.2;;;;;;;4.49;63.11523;94936.91;;;;
2022/04/13 02:41:56;;;;;;;6.450001;3.2;;;;;;;4.49;63.11523;94936.91;;;;
2022/04/13 02:42:56;;;;;;;6.450001;3.2;;;;;;;4.49;63.11523;94936.91;;;;
2022/04/13 02:43:57;;;;;;;6.450001;3.2;;;;;;;4.49;63.11523;94936.91;;;;
2022/04/13 02:44:57;;;;;;;6.450001;3.2;;;;;;;4.49;63.11523;94936.91;;;;
2022/04/13 02:45:58;;;;;;;6.450001;3.2;;;;;;;4.49;63.11523;94936.91;;;;
2022/04/13 02:46:59;;;;;;;6.450001;3.2;;;;;;;4.49;63.11523;94936.91;;;;
2022/04/13 02:47:59;;;;;;;6.450001;3.2;;;;;;;4.49;63.11523;94936.91;;;;
2022/04/13 02:48:59;;;;;;;6.450001;3.2;;;;;;;4.49;63.11523;94936.91;;;;
2022/04/13 02:50:00;;;;;;;6.450001;3.2;;;;;;;4.49;63.11523;94936.91;;;;
2022/04/13 02:51:01;;;;;;;6.450001;3.2;;;;;;;4.49;63.11523;94936.91;;;;
2022/04/13 02:52:01;;;;;;;6.450001;3.2;;;;;;;4.49;63.11523;94936.91;;;;
2022/04/13 02:53:02;;;;;;;6.450001;3.2;;;;;;;4.49;63.11523;94936.91;;;;
2022/04/13 02:54:03;;;;;;;6.450001;3.2;;;;;;;4.49;63.11523;94936.91;;;;
2022/04/13 02:55:04;;;;;;;6.450001;3.2;;;;;;;4.49;63.11523;94936.91;;;;
2022/04/13 02:56:06;;;;;;;6.450001;3.2;;;;;;;4.49;63.11523;94936.91;;;;
2022/04/13 02:57:06;;;;;;;6.450001;3.2;;;;;;;4.49;63.11523;94936.91;;;;
2022/04/13 02:58:07;;;;;;;6.450001;3.2;;;;;;;4.49;63.11523;94936.91;;;;
2022/04/13 02:59:07;;;;;;;6.450001;3.2;;;;;;;4.49;63.11523;94936.91;;;;
2022/04/13 03:00:08;;;;;;;6.450001;3.2;;;;;;;4.49;63.11523;94936.91;;;;
2022/04/13 03:01:09;;;;;;;6.450001;3.2;;;;;;;4.49;63.11523;94936.91;;;;
2022/04/13 03:02:09;;;;;;;5.200001;2.6;;;;;;;4.31;63.50293;94939.29;;;;
2022/04/13 03:03:10;;;;;;;5.200001;2.6;;;;;;;4.31;63.50293;94939.29;;;;
2022/04/13 03:04:10;;;;;;;5.200001;2.6;;;;;;;4.31;63.50293;94939.29;;;;
2022/04/13 03:05:11;;;;;;;5.200001;2.6;;;;;;;4.31;63.50293;94939.29;;;;
2022/04/13 03:06:11;;;;;;;5.200001;2.6;;;;;;;4.31;63.50293;94939.29;;;;
2022/04/13 03:07:12;;;;;;;5.200001;2.6;;;;;;;4.31;63.50293;94939.29;;;;
2022/04/13 03:08:14;;;;;;;5.200001;2.6;;;;;;;4.31;63.50293;94939.29;;;;
2022/04/13 03:09:15;;;;;;;5.200001;2.6;;;;;;;4.31;63.50293;94939.29;;;;
2022/04/13 03:10:15;;;;;;;5.200001;2.6;;;;;;;4.31;63.50293;94939.29;;;;
2022/04/13 03:11:17;;;;;;;5.200001;2.6;;;;;;;4.31;63.50293;94939.29;;;;
2022/04/13 03:12:17;;;;;;;3.75;2.75;;;;;;;4.14;63.76367;94938.04;;;;
2022/04/13 03:13:18;;;;;;;3.75;2.75;;;;;;;4.14;63.76367;94938.04;;;;
2022/04/13 03:14:18;;;;;;;3.75;2.75;;;;;;;4.14;63.76367;94938.04;;;;
2022/04/13 03:15:22;;;;;;;3.75;2.75;;;;;;;4.14;63.76367;94938.04;;;;
2022/04/13 03:16:23;;;;;;;3.75;2.75;;;;;;;4.14;63.76367;94938.04;;;;
2022/04/13 03:17:23;;;;;;;3.75;2.75;;;;;;;4.14;63.76367;94938.04;;;;
2022/04/13 03:18:24;;;;;;;3.75;2.75;;;;;;;4.14;63.76367;94938.04;;;;
2022/04/13 03:19:24;;;;;;;3.75;2.75;;;;;;;4.14;63.76367;94938.04;;;;
2022/04/13 03:20:25;;;;;;;3.75;2.75;;;;;;;4.14;63.76367;94938.04;;;;
2022/04/13 03:21:25;;;;;;;3.75;2.75;;;;;;;4.14;63.76367;94938.04;;;;
2022/04/13 03:22:26;;;;;;;3.75;2.75;;;;;;;4.14;63.76367;94938.04;;;;
2022/04/13 03:23:26;;;;;;;4.5;2.85;;;;;;;3.98;64.10938;94940.28;;;;
2022/04/13 03:24:27;;;;;;;4.5;2.85;;;;;;;3.98;64.10938;94940.28;;;;
2022/04/13 03:25:27;;;;;;;4.5;2.85;;;;;;;3.98;64.10938;94940.28;;;;
2022/04/13 03:26:28;;;;;;;4.5;2.85;;;;;;;3.98;64.10938;94940.28;;;;
2022/04/13 03:27:29;;;;;;;4.5;2.85;;;;;;;3.98;64.10938;94940.28;;;;
2022/04/13 03:28:29;;;;;;;4.5;2.85;;;;;;;3.98;64.10938;94940.28;;;;
2022/04/13 03:29:29;;;;;;;4.5;2.85;;;;;;;3.98;64.10938;94940.28;;;;
2022/04/13 03:30:30;;;;;;;4.5;2.85;;;;;;;3.98;64.10938;94940.28;;;;
2022/04/13 03:31:30;;;;;;;4.5;2.85;;;;;;;3.98;64.10938;94940.28;;;;
2022/04/13 03:32:31;;;;;;;4.5;2.85;;;;;;;3.98;64.10938;94940.28;;;;
2022/04/13 03:33:35;;;;;;;4.5;2.85;;;;;;;3.98;64.10938;94940.28;;;;
2022/04/13 03:34:36;;;;;;;4.5;2.85;;;;;;;3.98;64.10938;94940.28;;;;
2022/04/13 03:35:36;;;;;;;4.5;2.85;;;;;;;3.98;64.10938;94940.28;;;;
2022/04/13 03:36:39;;;;;;;4.5;2.85;;;;;;;3.98;64.10938;94940.28;;;;
2022/04/13 03:37:39;;;;;;;4.5;2.85;;;;;;;3.98;64.10938;94940.28;;;;
2022/04/13 03:38:40;;;;;;;4.5;2.85;;;;;;;3.98;64.10938;94940.28;;;;
2022/04/13 03:39:41;;;;;;;4.5;2.85;;;;;;;3.98;64.10938;94940.28;;;;
2022/04/13 03:40:42;;;;;;;4.5;2.85;;;;;;;3.98;64.10938;94940.28;;;;
2022/04/13 03:41:42;;;;;;;4.5;2.85;;;;;;;3.98;64.10938;94940.28;;;;
2022/04/13 03:42:43;;;;;;;4.5;2.85;;;;;;;3.98;64.10938;94940.28;;;;
2022/04/13 03:43:44;;;;;;;4.5;2.85;;;;;;;3.98;64.10938;94940.28;;;;
2022/04/13 03:44:44;;;;;;;8.849999;2.95;;;;;;;3.75;64.60352;94940.25;;;;
2022/04/13 03:45:45;;;;;;;8.849999;2.95;;;;;;;3.75;64.60352;94940.25;;;;
2022/04/13 03:46:45;;;;;;;8.849999;2.95;;;;;;;3.75;64.60352;94940.25;;;;
2022/04/13 03:47:46;;;;;;;8.849999;2.95;;;;;;;3.75;64.60352;94940.25;;;;
2022/04/13 03:48:47;;;;;;;8.849999;2.95;;;;;;;3.75;64.60352;94940.25;;;;
2022/04/13 03:49:47;;;;;;;8.849999;2.95;;;;;;;3.75;64.60352;94940.25;;;;
2022/04/13 03:50:50;;;;;;;8.849999;2.95;;;;;;;3.75;64.60352;94940.25;;;;
2022/04/13 03:51:50;;;;;;;8.849999;2.95;;;;;;;3.75;64.60352;94940.25;;;;
2022/04/13 03:52:51;;;;;;;8.849999;2.95;;;;;;;3.75;64.60352;94940.25;;;;
2022/04/13 03:53:51;;;;;;;8.849999;2.95;;;;;;;3.75;64.60352;94940.25;;;;
2022/04/13 03:54:52;;;;;;;8.849999;2.95;;;;;;;3.75;64.60352;94940.25;;;;
2022/04/13 03:55:52;;;;;;;5.050001;3;;;;;;;3.68;64.80371;94950.02;;;;
2022/04/13 03:56:53;;;;;;;5.050001;3;;;;;;;3.68;64.80371;94950.02;;;;
2022/04/13 03:57:54;;;;;;;5.050001;3;;;;;;;3.68;64.80371;94950.02;;;;
2022/04/13 03:58:54;;;;;;;5.050001;3;;;;;;;3.68;64.80371;94950.02;;;;
2022/04/13 03:59:55;;;;;;;5.050001;3;;;;;;;3.68;64.80371;94950.02;;;;
2022/04/13 04:00:55;;;;;;;5.050001;3;;;;;;;3.68;64.80371;94950.02;;;;
2022/04/13 04:01:55;;;;;;;5.050001;3;;;;;;;3.68;64.80371;94950.02;;;;
2022/04/13 04:02:56;;;;;;;5.050001;3;;;;;;;3.68;64.80371;94950.02;;;;
2022/04/13 04:03:56;;;;;;;5.050001;3;;;;;;;3.68;64.80371;94950.02;;;;
2022/04/13 04:04:57;;;;;;;5.050001;3;;;;;;;3.68;64.80371;94950.02;;;;
2022/04/13 04:06:01;;;;;;;5.050001;3;;;;;;;3.68;64.80371;94950.02;;;;
2022/04/13 04:07:02;;;;;;;5.050001;3;;;;;;;3.68;64.80371;94950.02;;;;
2022/04/13 04:08:02;;;;;;;5.050001;3;;;;;;;3.68;64.80371;94950.02;;;;
2022/04/13 04:09:04;;;;;;;5.050001;3;;;;;;;3.68;64.80371;94950.02;;;;
2022/04/13 04:10:04;;;;;;;5.050001;3;;;;;;;3.68;64.80371;94950.02;;;;
2022/04/13 04:11:06;;;;;;;5.050001;3;;;;;;;3.68;64.80371;94950.02;;;;
2022/04/13 04:12:07;;;;;;;5.050001;3;;;;;;;3.68;64.80371;94950.02;;;;
2022/04/13 04:13:08;;;;;;;5.050001;3;;;;;;;3.68;64.80371;94950.02;;;;
2022/04/13 04:14:09;;;;;;;5.050001;3;;;;;;;3.68;64.80371;94950.02;;;;
2022/04/13 04:15:09;;;;;;;5.050001;3;;;;;;;3.68;64.80371;94950.02;;;;
2022/04/13 04:16:10;;;;;;;5.050001;3;;;;;;;3.68;64.80371;94950.02;;;;
2022/04/13 04:17:10;;;;;;;8.150001;3.25;;;;;;;3.63;65.11328;94959.23;;;;
2022/04/13 04:18:11;;;;;;;8.150001;3.25;;;;;;;3.63;65.11328;94959.23;;;;
2022/04/13 04:19:11;;;;;;;8.150001;3.25;;;;;;;3.63;65.11328;94959.23;;;;
2022/04/13 04:20:12;;;;;;;8.150001;3.25;;;;;;;3.63;65.11328;94959.23;;;;
2022/04/13 04:21:13;;;;;;;8.150001;3.25;;;;;;;3.63;65.11328;94959.23;;;;
2022/04/13 04:22:15;;;;;;;8.150001;3.25;;;;;;;3.63;65.11328;94959.23;;;;
2022/04/13 04:23:15;;;;;;;8.150001;3.25;;;;;;;3.63;65.11328;94959.23;;;;
2022/04/13 04:24:15;;;;;;;8.150001;3.25;;;;;;;3.63;65.11328;94959.23;;;;
2022/04/13 04:25:16;;;;;;;8.150001;3.25;;;;;;;3.63;65.11328;94959.23;;;;
2022/04/13 04:26:16;;;;;;;8.150001;3.25;;;;;;;3.63;65.11328;94959.23;;;;
2022/04/13 04:27:17;;;;;;;7.199999;3.15;;;;;;;3.64;65.27344;94964.36;;;;
2022/04/13 04:28:17;;;;;;;7.199999;3.15;;;;;;;3.64;65.27344;94964.36;;;;
2022/04/13 04:29:18;;;;;;;7.199999;3.15;;;;;;;3.64;65.27344;94964.36;;;;
2022/04/13 04:30:18;;;;;;;7.199999;3.15;;;;;;;3.64;65.27344;94964.36;;;;
2022/04/13 04:31:49;;;;;;;7.199999;3.15;;;;;;;3.64;65.27344;94964.36;;;;
2022/04/13 04:32:50;;;;;;;7.199999;3.15;;;;;;;3.64;65.27344;94964.36;;;;
2022/04/13 04:33:50;;;;;;;7.199999;3.15;;;;;;;3.64;65.27344;94964.36;;;;
2022/04/13 04:34:51;;;;;;;7.199999;3.15;;;;;;;3.64;65.27344;94964.36;;;;
2022/04/13 04:35:52;;;;;;;7.199999;3.15;;;;;;;3.64;65.27344;94964.36;;;;
2022/04/13 04:36:52;;;;;;;7.199999;3.15;;;;;;;3.64;65.27344;94964.36;;;;
2022/04/13 04:37:54;;;;;;;7.199998;3.6;;;;;;;3.68;65.37402;94966.12;;;;
2022/04/13 04:38:54;;;;;;;7.199998;3.6;;;;;;;3.68;65.37402;94966.12;;;;
2022/04/13 04:39:55;;;;;;;7.199998;3.6;;;;;;;3.68;65.37402;94966.12;;;;
2022/04/13 04:40:55;;;;;;;7.199998;3.6;;;;;;;3.68;65.37402;94966.12;;;;
2022/04/13 04:41:55;;;;;;;7.199998;3.6;;;;;;;3.68;65.37402;94966.12;;;;
2022/04/13 04:42:58;;;;;;;7.199998;3.6;;;;;;;3.68;65.37402;94966.12;;;;
2022/04/13 04:43:58;;;;;;;7.199998;3.6;;;;;;;3.68;65.37402;94966.12;;;;
2022/04/13 04:44:59;;;;;;;7.199998;3.6;;;;;;;3.68;65.37402;94966.12;;;;
2022/04/13 04:45:59;;;;;;;7.199998;3.6;;;;;;;3.68;65.37402;94966.12;;;;
2022/04/13 04:47:00;;;;;;;7.199998;3.6;;;;;;;3.68;65.37402;94966.12;;;;
2022/04/13 04:48:04;;;;;;;7.199998;3.6;;;;;;;3.68;65.37402;94966.12;;;;
2022/04/13 04:49:05;;;;;;;9.8;4;;;;;;;3.82;65.35352;94978.89;;;;
2022/04/13 04:50:07;;;;;;;9.8;4;;;;;;;3.82;65.35352;94978.89;;;;
2022/04/13 04:51:09;;;;;;;9.8;4;;;;;;;3.82;65.35352;94978.89;;;;
2022/04/13 04:52:09;;;;;;;9.8;4;;;;;;;3.82;65.35352;94978.89;;;;
2022/04/13 04:53:10;;;;;;;9.8;4;;;;;;;3.82;65.35352;94978.89;;;;
2022/04/13 04:54:10;;;;;;;9.8;4;;;;;;;3.82;65.35352;94978.89;;;;
2022/04/13 04:55:11;;;;;;;9.8;4;;;;;;;3.82;65.35352;94978.89;;;;
2022/04/13 04:56:14;;;;;;;9.8;4;;;;;;;3.82;65.35352;94978.89;;;;
2022/04/13 04:57:15;;;;;;;9.8;4;;;;;;;3.82;65.35352;94978.89;;;;
2022/04/13 04:58:15;;;;;;;9.8;4;;;;;;;3.82;65.35352;94978.89;;;;
2022/04/13 04:59:15;;;;;;;7.5;3.65;;;;;;;4.02;65.25684;94990.01;;;;
2022/04/13 05:00:17;;;;;;;7.5;3.65;;;;;;;4.02;65.25684;94990.01;;;;
2022/04/13 05:01:20;;;;;;;7.5;3.65;;;;;;;4.02;65.25684;94990.01;;;;
2022/04/13 05:02:20;;;;;;;7.5;3.65;;;;;;;4.02;65.25684;94990.01;;;;
2022/04/13 05:03:20;;;;;;;7.5;3.65;;;;;;;4.02;65.25684;94990.01;;;;
2022/04/13 05:04:21;;;;;;;7.5;3.65;;;;;;;4.02;65.25684;94990.01;;;;
2022/04/13 05:05:21;;;;;;;7.5;3.65;;;;;;;4.02;65.25684;94990.01;;;;
2022/04/13 05:06:22;;;;;;;7.5;3.65;;;;;;;4.02;65.25684;94990.01;;;;
2022/04/13 05:07:24;;;;;;;7.5;3.65;;;;;;;4.02;65.25684;94990.01;;;;
2022/04/13 05:08:25;;;;;;;7.5;3.65;;;;;;;4.02;65.25684;94990.01;;;;
2022/04/13 05:09:25;;;;;;;7.5;3.65;;;;;;;4.02;65.25684;94990.01;;;;
2022/04/13 05:10:26;;;;;;;10.05;3.55;;;;;;;4.33;65.18555;95000.12;;;;
2022/04/13 05:11:26;;;;;;;10.05;3.55;;;;;;;4.33;65.18555;95000.12;;;;
2022/04/13 05:12:26;;;;;;;10.05;3.55;;;;;;;4.33;65.18555;95000.12;;;;
2022/04/13 05:13:29;;;;;;;10.05;3.55;;;;;;;4.33;65.18555;95000.12;;;;
2022/04/13 05:14:29;;;;;;;10.05;3.55;;;;;;;4.33;65.18555;95000.12;;;;
2022/04/13 05:15:30;;;;;;;10.05;3.55;;;;;;;4.33;65.18555;95000.12;;;;
2022/04/13 05:16:30;;;;;;;10.05;3.55;;;;;;;4.33;65.18555;95000.12;;;;
2022/04/13 05:17:31;;;;;;;10.05;3.55;;;;;;;4.33;65.18555;95000.12;;;;
2022/04/13 05:18:31;;;;;;;10.05;3.55;;;;;;;4.33;65.18555;95000.12;;;;
2022/04/13 05:19:33;;;;;;;10.05;3.55;;;;;;;4.33;65.18555;95000.12;;;;
2022/04/13 05:20:34;;;;;;;10.05;3.55;;;;;;;4.33;65.18555;95000.12;;;;
2022/04/13 05:21:34;;;;;;;10.05;3.55;;;;;;;4.33;65.18555;95000.12;;;;
2022/04/13 05:22:35;;;;;;;10.05;3.55;;;;;;;4.33;65.18555;95000.12;;;;
2022/04/13 05:23:36;;;;;;;10.05;3.55;;;;;;;4.33;65.18555;95000.12;;;;
2022/04/13 05:24:36;;;;;;;10.05;3.55;;;;;;;4.33;65.18555;95000.12;;;;
2022/04/13 05:25:37;;;;;;;10.05;3.55;;;;;;;4.33;65.18555;95000.12;;;;
2022/04/13 05:26:38;;;;;;;10.05;3.55;;;;;;;4.33;65.18555;95000.12;;;;
2022/04/13 05:27:39;;;;;;;10.05;3.55;;;;;;;4.33;65.18555;95000.12;;;;
2022/04/13 05:28:41;;;;;;;10.05;3.55;;;;;;;4.33;65.18555;95000.12;;;;
2022/04/13 05:29:41;;;;;;;10.05;3.55;;;;;;;4.33;65.18555;95000.12;;;;
2022/04/13 05:30:42;;;;;;;10.05;3.55;;;;;;;4.33;65.18555;95000.12;;;;
2022/04/13 05:31:42;;;;;;;8.9;3.5;;;;;;;5.11;65.03027;95005.82;;;;
2022/04/13 05:32:42;;;;;;;8.9;3.5;;;;;;;5.11;65.03027;95005.82;;;;
2022/04/13 05:33:48;;;;;;;8.9;3.5;;;;;;;5.11;65.03027;95005.82;;;;
2022/04/13 05:34:48;;;;;;;8.9;3.5;;;;;;;5.11;65.03027;95005.82;;;;
2022/04/13 05:35:49;;;;;;;8.9;3.5;;;;;;;5.11;65.03027;95005.82;;;;
2022/04/13 05:36:50;;;;;;;8.9;3.5;;;;;;;5.11;65.03027;95005.82;;;;
2022/04/13 05:37:50;;;;;;;8.9;3.5;;;;;;;5.11;65.03027;95005.82;;;;
2022/04/13 05:38:51;;;;;;;8.9;3.5;;;;;;;5.11;65.03027;95005.82;;;;
2022/04/13 05:39:52;;;;;;;8.9;3.5;;;;;;;5.11;65.03027;95005.82;;;;
2022/04/13 05:40:52;;;;;;;8.9;3.5;;;;;;;5.11;65.03027;95005.82;;;;
2022/04/13 05:41:53;;;;;;;11.25;3.45;;;;;;;5.53;64.94434;95001.37;;;;
2022/04/13 05:42:53;;;;;;;11.25;3.45;;;;;;;5.53;64.94434;95001.37;;;;
2022/04/13 05:43:54;;;;;;;11.25;3.45;;;;;;;5.53;64.94434;95001.37;;;;
2022/04/13 05:44:54;;;;;;;11.25;3.45;;;;;;;5.53;64.94434;95001.37;;;;
2022/04/13 05:45:55;;;;;;;11.25;3.45;;;;;;;5.53;64.94434;95001.37;;;;